Time;durP1;ratioP1;P1;durP2;ratioP2;P2;SDS_P1;SDS_P2;PMS_P1;PMS_P2;Temp;Humidity;BMP_temperature;BMP_pressure;BME280_temperature;BME280_humidity;BME280_pressure;Samples;Min_cycle;Max_cycle;Signal;HPM_P1;HPM_P2
2023/07/27 00:00:55;;;;;;;3.05;2.10;;;13.00;99.90;;;12.64;100.00;97151.34;5031362;28;20235;-37
2023/07/27 00:03:21;;;;;;;4.05;2.10;;;13.00;99.90;;;12.64;100.00;97144.28;5032458;28;20037;-37
2023/07/27 00:05:47;;;;;;;2.78;2.20;;;13.00;99.90;;;12.66;100.00;97145.03;5031148;28;20106;-38
2023/07/27 00:08:12;;;;;;;2.40;1.80;;;13.10;99.90;;;12.67;100.00;97146.78;5036284;28;20037;-37
2023/07/27 00:10:38;;;;;;;3.22;1.98;;;13.10;99.90;;;12.62;100.00;97137.34;5035009;28;20033;-37
2023/07/27 00:13:04;;;;;;;3.63;2.05;;;13.10;99.90;;;12.64;100.00;97144.28;5028943;28;20095;-37
2023/07/27 00:15:29;;;;;;;2.95;2.00;;;13.00;99.90;;;12.62;100.00;97142.66;5031545;28;20615;-37
2023/07/27 00:17:55;;;;;;;3.03;2.17;;;13.00;99.90;;;12.65;100.00;97146.00;5032504;28;20090;-38
2023/07/27 00:20:21;;;;;;;5.78;2.50;;;13.10;99.90;;;12.67;100.00;97143.25;5035055;28;20060;-38
2023/07/27 00:22:47;;;;;;;4.25;2.20;;;13.10;99.90;;;12.70;100.00;97137.81;5036433;28;20029;-39
2023/07/27 00:25:12;;;;;;;4.32;2.60;;;13.10;99.90;;;12.72;100.00;97135.94;5033655;28;20686;-37
2023/07/27 00:27:38;;;;;;;3.58;2.30;;;13.10;99.90;;;12.74;100.00;97127.03;5037444;28;20124;-37
2023/07/27 00:30:04;;;;;;;4.65;2.00;;;13.10;99.90;;;12.77;100.00;97129.47;5033380;28;20040;-37
2023/07/27 00:32:30;;;;;;;2.40;1.83;;;13.20;99.90;;;12.78;100.00;97131.22;5039727;28;20477;-37
2023/07/27 00:34:56;;;;;;;3.63;2.50;;;13.20;99.90;;;12.80;100.00;97117.91;5035405;28;20221;-39
2023/07/27 00:37:21;;;;;;;2.85;2.30;;;13.20;99.90;;;12.81;100.00;97116.94;5036136;28;20051;-38
2023/07/27 00:39:47;;;;;;;3.38;2.28;;;13.20;99.90;;;12.73;100.00;97103.28;5039829;28;20028;-37
2023/07/27 00:42:13;;;;;;;3.00;2.00;;;13.20;99.90;;;12.80;100.00;97116.09;5035821;28;20071;-37
2023/07/27 00:44:39;;;;;;;3.50;2.05;;;13.20;99.90;;;12.72;100.00;97107.72;5040959;28;20067;-37
2023/07/27 00:47:05;;;;;;;3.70;2.42;;;13.20;99.90;;;12.77;100.00;97115.41;5035529;28;20177;-37
2023/07/27 00:49:31;;;;;;;2.80;2.08;;;13.20;99.90;;;12.74;100.00;97115.56;5037539;28;20408;-37
2023/07/27 00:51:57;;;;;;;2.60;2.40;;;13.10;99.90;;;12.55;100.00;97089.19;5028933;28;20424;-39
2023/07/27 00:54:24;;;;;;;2.72;2.25;;;13.10;99.90;;;12.49;100.00;97089.47;5034495;28;20054;-37
2023/07/27 00:56:50;;;;;;;2.70;2.00;;;13.00;99.90;;;12.41;100.00;97085.41;5035049;28;20051;-37
2023/07/27 00:59:16;;;;;;;4.18;2.20;;;12.90;99.90;;;12.44;100.00;97104.72;5032905;28;20025;-37
2023/07/27 01:01:41;;;;;;;3.65;2.38;;;12.80;99.90;;;12.35;100.00;97108.69;5031018;28;20032;-37
2023/07/27 01:04:07;;;;;;;3.20;2.30;;;12.80;99.90;;;12.26;100.00;97095.88;5030808;28;20079;-38
2023/07/27 01:06:33;;;;;;;3.15;2.10;;;12.70;99.90;;;12.20;100.00;97094.38;5035182;28;20068;-37
2023/07/27 01:09:00;;;;;;;4.85;2.33;;;12.60;99.90;;;12.16;100.00;97091.03;5034465;28;20028;-37
2023/07/27 01:11:40;;;;;;;3.75;2.13;;;12.60;99.90;;;12.16;100.00;97093.69;5033458;28;20033;-39
2023/07/27 01:14:24;;;;;;;3.63;2.28;;;12.60;99.90;;;12.19;100.00;97087.41;5029886;28;20080;-37
2023/07/27 01:17:02;;;;;;;2.80;2.15;;;12.60;99.90;;;12.22;100.00;97088.13;5037115;28;20452;-37
2023/07/27 01:20:00;;;;;;;3.38;2.28;;;12.60;99.90;;;12.26;100.00;97080.00;5037464;28;20040;-37
2023/07/27 01:22:32;;;;;;;4.38;2.25;;;12.60;99.90;;;12.28;100.00;97079.03;5034886;28;20507;-37
2023/07/27 01:26:06;;;;;;;4.57;2.20;;;12.70;99.90;;;12.33;100.00;97073.53;5037419;28;20162;-37
2023/07/27 01:28:59;;;;;;;3.03;2.10;;;12.70;99.90;;;12.40;100.00;97074.94;4974302;28;20042;-37
2023/07/27 01:31:31;;;;;;;;;;;12.80;99.90;;;12.40;100.00;97067.84;4988487;28;20038;-37
2023/07/27 01:34:02;;;;;;;3.25;2.30;;;12.80;99.90;;;12.45;100.00;97067.59;5020675;28;20378;-38
2023/07/27 01:36:36;;;;;;;3.25;2.03;;;12.80;99.90;;;12.46;100.00;97071.13;5033766;28;20041;-37
2023/07/27 01:39:06;;;;;;;2.97;1.98;;;12.80;99.90;;;12.36;100.00;97044.25;5030107;28;20033;-37
2023/07/27 01:41:33;;;;;;;3.35;2.03;;;12.80;99.90;;;12.43;100.00;97058.03;5035678;28;20021;-37
2023/07/27 01:44:01;;;;;;;3.72;2.05;;;12.80;99.90;;;12.36;100.00;97045.16;5031025;28;20029;-37
2023/07/27 01:46:30;;;;;;;3.92;2.10;;;12.80;99.90;;;12.30;100.00;97048.06;5035075;28;20068;-37
2023/07/27 01:48:57;;;;;;;3.15;2.10;;;12.70;99.90;;;12.28;100.00;97042.00;5032978;28;20457;-37
2023/07/27 01:51:24;;;;;;;3.45;2.28;;;12.60;99.90;;;12.26;100.00;97049.16;5037699;28;20419;-37
2023/07/27 01:53:51;;;;;;;3.15;2.35;;;12.70;99.90;;;12.26;100.00;97041.22;5032208;28;20117;-36
2023/07/27 01:56:17;;;;;;;5.05;2.13;;;12.60;99.90;;;12.25;100.00;97036.88;5031148;28;20056;-37
2023/07/27 01:58:45;;;;;;;3.08;2.30;;;12.70;99.90;;;12.27;100.00;97042.09;5037638;28;20043;-37
2023/07/27 02:01:11;;;;;;;3.65;2.38;;;12.60;99.90;;;12.23;100.00;97039.59;5024457;28;20060;-37
2023/07/27 02:03:36;;;;;;;3.65;1.83;;;12.60;99.90;;;12.22;100.00;97029.97;5034802;28;20144;-37
2023/07/27 02:06:02;;;;;;;3.15;1.83;;;12.60;99.90;;;12.21;100.00;97035.31;5026571;28;20373;-37
2023/07/27 02:08:28;;;;;;;2.97;1.95;;;12.60;99.90;;;12.18;100.00;97024.88;5029229;28;20101;-37
2023/07/27 02:11:07;;;;;;;3.03;1.92;;;12.50;99.90;;;12.19;100.00;97023.97;5026755;28;20064;-36
2023/07/27 02:13:42;;;;;;;2.90;2.35;;;12.60;99.90;;;12.22;100.00;97027.31;5024510;28;20075;-37
2023/07/27 02:16:23;;;;;;;4.15;2.17;;;12.60;99.90;;;12.24;100.00;97027.25;5028136;28;20029;-37
2023/07/27 02:18:50;;;;;;;2.25;1.70;;;12.60;99.90;;;12.27;100.00;97019.13;5029134;28;20029;-37
2023/07/27 02:21:17;;;;;;;3.83;1.77;;;12.70;99.90;;;12.33;100.00;97018.84;5026508;28;20044;-37
2023/07/27 02:23:44;;;;;;;2.45;1.80;;;12.70;99.90;;;12.37;100.00;97016.91;5024975;28;20032;-38
2023/07/27 02:26:10;;;;;;;4.32;1.92;;;12.70;99.90;;;12.38;100.00;97015.94;5030011;28;20064;-37
2023/07/27 02:28:35;;;;;;;4.70;2.20;;;12.80;99.90;;;12.43;100.00;97018.38;5029735;28;20159;-38
2023/07/27 02:31:01;;;;;;;5.50;1.80;;;12.80;99.90;;;12.46;100.00;97013.78;5032182;28;20461;-37
2023/07/27 02:33:27;;;;;;;2.92;1.77;;;12.90;99.90;;;12.50;100.00;97011.84;5031194;28;20138;-38
2023/07/27 02:35:53;;;;;;;2.45;1.63;;;12.80;99.90;;;12.53;100.00;97009.06;5019154;28;20064;-39
2023/07/27 02:38:19;;;;;;;2.70;1.75;;;12.90;99.90;;;12.56;100.00;97000.94;5014352;28;20036;-37
2023/07/27 02:40:44;;;;;;;3.30;2.03;;;12.90;99.90;;;12.66;100.00;97011.91;5028527;28;20684;-37
2023/07/27 02:43:10;;;;;;;2.70;1.63;;;13.00;99.90;;;12.70;100.00;97003.72;5021292;28;20036;-37
2023/07/27 02:45:36;;;;;;;2.63;1.73;;;13.10;99.90;;;12.77;100.00;97002.47;5018383;28;20087;-37
2023/07/27 02:48:01;;;;;;;2.13;1.70;;;13.10;99.90;;;12.85;100.00;96998.56;5030381;28;20032;-37
2023/07/27 02:50:27;;;;;;;3.75;1.98;;;13.20;99.90;;;12.92;100.00;96999.97;5024865;28;20112;-37
2023/07/27 02:52:53;;;;;;;2.85;1.80;;;13.30;99.90;;;13.02;100.00;96993.25;5025252;28;20087;-38
2023/07/27 02:55:19;;;;;;;2.75;1.90;;;13.40;99.90;;;13.13;100.00;97001.47;5023901;28;20357;-38
2023/07/27 02:57:45;;;;;;;2.92;1.90;;;13.50;99.90;;;13.27;100.00;96989.28;5028216;28;20583;-37
2023/07/27 03:00:11;;;;;;;4.32;1.90;;;13.60;99.90;;;13.34;100.00;96994.19;5025203;28;20036;-37
2023/07/27 03:02:37;;;;;;;2.80;1.98;;;13.70;99.90;;;13.39;100.00;96990.44;5026241;28;20409;-37
2023/07/27 03:05:05;;;;;;;3.25;1.98;;;13.80;99.90;;;13.46;100.00;96994.44;5027505;28;20025;-37
2023/07/27 03:07:31;;;;;;;3.97;2.00;;;13.80;99.90;;;13.48;100.00;96988.16;5027368;28;20485;-38
2023/07/27 03:09:57;;;;;;;2.90;1.60;;;13.80;99.90;;;13.54;100.00;96989.59;5029515;28;20048;-37
2023/07/27 03:12:22;;;;;;;3.75;1.92;;;13.90;99.90;;;13.53;100.00;96979.94;5031150;28;22467;-37
2023/07/27 03:14:48;;;;;;;4.93;2.03;;;13.90;99.90;;;13.63;100.00;96990.88;5031242;28;20382;-38
2023/07/27 03:17:14;;;;;;;3.30;2.10;;;14.00;99.90;;;13.67;100.00;96992.41;5026730;28;20040;-37
2023/07/27 03:19:40;;;;;;;2.85;1.83;;;14.00;99.90;;;13.71;100.00;96996.59;5026323;28;20877;-37
2023/07/27 03:22:06;;;;;;;2.72;1.90;;;14.00;99.90;;;13.70;100.00;96982.50;5027700;28;20025;-38
2023/07/27 03:24:32;;;;;;;2.92;1.80;;;14.10;99.90;;;13.77;100.00;96988.31;5031985;28;20484;-37
2023/07/27 03:26:58;;;;;;;3.10;1.92;;;14.10;99.90;;;13.69;100.00;96977.28;5028172;28;20476;-38
2023/07/27 03:29:23;;;;;;;2.38;1.90;;;14.20;99.90;;;13.81;100.00;96989.84;5029863;28;20186;-37
2023/07/27 03:31:49;;;;;;;4.97;1.83;;;14.20;99.90;;;13.84;100.00;96992.34;5028198;28;20285;-37
2023/07/27 03:34:15;;;;;;;4.68;1.92;;;14.20;99.90;;;13.88;100.00;96993.84;5022653;28;20040;-37
2023/07/27 03:36:41;;;;;;;2.42;1.77;;;14.20;99.90;;;13.88;100.00;96985.91;5030139;28;20373;-39
2023/07/27 03:39:07;;;;;;;3.55;1.85;;;14.20;99.90;;;13.88;100.00;96985.06;5023674;28;20037;-37
2023/07/27 03:41:33;;;;;;;3.38;1.73;;;14.20;99.90;;;13.87;100.00;96984.22;5028883;28;20031;-38
2023/07/27 03:43:59;;;;;;;3.25;1.67;;;14.20;99.90;;;13.86;100.00;96982.50;5022840;28;20148;-37
2023/07/27 03:46:25;;;;;;;2.95;1.60;;;14.20;99.90;;;13.84;100.00;96975.59;5021779;28;20078;-37
2023/07/27 03:48:51;;;;;;;5.60;2.05;;;14.20;99.90;;;13.81;100.00;96973.09;5027989;28;20298;-37
2023/07/27 03:51:17;;;;;;;2.35;1.90;;;14.20;99.90;;;13.78;100.00;96976.75;5034086;28;21476;-37
2023/07/27 03:53:43;;;;;;;2.83;1.80;;;14.20;99.90;;;13.79;100.00;96972.34;5025500;28;20037;-37
2023/07/27 03:56:09;;;;;;;2.30;1.63;;;14.10;99.90;;;13.80;100.00;96966.94;5031629;28;20029;-37
2023/07/27 03:58:34;;;;;;;2.83;1.80;;;14.20;99.90;;;13.83;100.00;96968.56;5030511;28;20127;-38
2023/07/27 04:01:00;;;;;;;3.00;1.88;;;14.20;99.90;;;13.82;100.00;96962.41;5018199;28;20057;-38
2023/07/27 04:03:26;;;;;;;2.58;1.65;;;14.20;99.90;;;13.84;100.00;96957.88;5028599;28;20044;-38
2023/07/27 04:05:52;;;;;;;2.17;1.73;;;14.20;99.90;;;13.85;100.00;96962.22;5034331;28;20095;-37
2023/07/27 04:08:18;;;;;;;1.98;1.73;;;14.20;99.90;;;13.86;100.00;96963.09;5023170;28;20477;-37
2023/07/27 04:10:44;;;;;;;2.42;1.50;;;14.20;99.90;;;13.84;100.00;96960.53;5029078;28;20670;-36
2023/07/27 04:13:10;;;;;;;3.13;1.95;;;14.20;99.90;;;13.78;100.00;96937.00;5026235;28;20171;-37
2023/07/27 04:15:37;;;;;;;2.72;1.80;;;14.20;99.90;;;13.85;100.00;96946.31;5023476;28;20128;-39
2023/07/27 04:18:04;;;;;;;4.72;1.80;;;14.20;99.90;;;13.87;100.00;96959.47;5028917;28;20409;-38
2023/07/27 04:20:30;;;;;;;3.58;1.88;;;14.20;99.90;;;13.87;100.00;96944.47;5025297;28;20310;-38
2023/07/27 04:22:55;;;;;;;3.72;1.63;;;14.20;99.90;;;13.87;100.00;96939.16;5029010;28;20290;-37
2023/07/27 04:25:21;;;;;;;4.20;1.80;;;14.30;99.90;;;13.89;100.00;96952.28;5024837;28;20201;-37
2023/07/27 04:27:51;;;;;;;2.25;1.60;;;14.30;99.90;;;13.96;100.00;96953.66;5025709;28;20623;-38
2023/07/27 04:30:18;;;;;;;1.55;1.40;;;14.30;99.90;;;13.96;100.00;96953.66;5020931;28;20644;-37
2023/07/27 04:32:44;;;;;;;3.70;2.05;;;14.30;99.90;;;14.01;100.00;96954.25;5034181;28;20028;-37
2023/07/27 04:35:10;;;;;;;2.35;1.50;;;14.30;99.90;;;14.02;100.00;96948.00;5018487;28;20072;-37
2023/07/27 04:37:36;;;;;;;2.30;1.85;;;14.40;99.90;;;13.97;100.00;96933.31;5017618;28;20064;-38
2023/07/27 04:40:01;;;;;;;2.95;1.60;;;14.40;99.90;;;14.04;100.00;96943.47;5026744;28;20503;-37
2023/07/27 04:42:27;;;;;;;2.55;1.70;;;14.40;99.90;;;14.07;100.00;96945.09;5031919;28;20056;-37
2023/07/27 04:44:53;;;;;;;4.97;1.90;;;14.40;99.90;;;14.09;100.00;96940.56;5030906;28;20026;-37
2023/07/27 04:47:19;;;;;;;2.42;1.80;;;14.50;99.90;;;14.12;100.00;96943.00;5031183;28;20051;-37
2023/07/27 04:49:46;;;;;;;2.45;1.73;;;14.50;99.90;;;14.18;100.00;96945.31;5033913;28;20228;-38
2023/07/27 04:52:11;;;;;;;2.42;1.60;;;14.50;99.90;;;14.25;100.00;96938.72;5028471;28;20037;-38
2023/07/27 04:54:37;;;;;;;2.63;1.90;;;14.60;99.90;;;14.30;100.00;96936.66;5031495;28;20347;-37
2023/07/27 04:57:03;;;;;;;3.25;2.03;;;14.60;99.90;;;14.36;100.00;96940.72;5037873;28;20505;-38
2023/07/27 04:59:29;;;;;;;3.45;1.88;;;14.70;99.90;;;14.32;100.00;96929.44;5036136;28;20056;-37
2023/07/27 05:01:54;;;;;;;3.38;1.95;;;14.80;99.90;;;14.48;100.00;96941.78;5038897;28;20398;-37
2023/07/27 05:04:20;;;;;;;4.72;2.35;;;14.80;99.90;;;14.52;100.00;96936.22;5028886;28;20025;-38
2023/07/27 05:06:46;;;;;;;2.17;1.70;;;14.90;99.90;;;14.55;100.00;96929.00;5029250;28;20055;-37
2023/07/27 05:09:11;;;;;;;4.05;1.92;;;14.90;99.90;;;14.47;100.00;96919.72;5045282;28;20504;-37
2023/07/27 05:11:37;;;;;;;2.92;1.85;;;14.90;99.90;;;14.63;100.00;96951.50;5030497;28;20032;-37
2023/07/27 05:14:03;;;;;;;3.03;1.70;;;15.00;99.90;;;14.71;100.00;96940.44;5031552;28;20037;-37
2023/07/27 05:16:29;;;;;;;3.92;1.63;;;15.10;99.90;;;14.78;100.00;96943.56;5031783;28;20838;-37
2023/07/27 05:18:57;;;;;;;5.80;1.90;;;15.10;99.90;;;14.84;100.00;96943.19;5030983;28;20119;-37
2023/07/27 05:21:23;;;;;;;2.35;1.58;;;15.20;99.90;;;14.93;100.00;96945.28;5025658;28;20024;-37
2023/07/27 05:23:49;;;;;;;1.98;1.50;;;15.30;99.90;;;15.01;100.00;96947.47;5033511;28;20430;-38
2023/07/27 05:26:15;;;;;;;3.20;2.00;;;15.40;99.90;;;15.10;100.00;96938.06;5033452;28;20119;-37
2023/07/27 05:28:41;;;;;;;4.78;1.67;;;15.40;99.90;;;15.20;100.00;96936.53;5031903;28;20039;-37
2023/07/27 05:31:07;;;;;;;2.65;1.65;;;15.50;99.90;;;15.30;100.00;96939.47;5027510;28;20104;-37
2023/07/27 05:33:33;;;;;;;3.65;1.73;;;15.60;99.90;;;15.42;100.00;96928.91;5033055;28;20033;-37
2023/07/27 05:35:59;;;;;;;3.58;1.75;;;15.80;99.90;;;15.46;100.00;96917.13;5028881;28;20499;-37
2023/07/27 05:38:24;;;;;;;3.55;1.48;;;15.90;99.90;;;15.64;100.00;96930.19;5026682;28;20509;-37
2023/07/27 05:40:50;;;;;;;2.40;1.65;;;16.00;99.90;;;15.69;100.00;96933.41;5037601;28;20036;-37
2023/07/27 05:43:16;;;;;;;4.20;1.58;;;16.00;99.90;;;15.75;100.00;96929.53;5020877;28;20052;-37
2023/07/27 05:45:41;;;;;;;2.63;1.73;;;16.10;99.90;;;15.77;100.00;96930.28;5032839;28;20055;-37
2023/07/27 05:48:07;;;;;;;4.50;1.80;;;16.10;99.90;;;15.74;100.00;96926.03;5030023;28;20033;-37
2023/07/27 05:50:34;;;;;;;3.33;1.55;;;16.20;99.90;;;15.75;100.00;96934.84;5036174;28;20036;-37
2023/07/27 05:53:00;;;;;;;3.00;2.00;;;16.10;99.90;;;15.72;100.00;96933.22;5024341;28;20151;-38
2023/07/27 05:55:25;;;;;;;2.58;2.00;;;16.10;99.90;;;15.70;100.00;96932.44;5024476;28;20110;-37
2023/07/27 05:57:51;;;;;;;3.35;1.80;;;16.10;99.90;;;15.73;100.00;96932.25;5031849;28;20036;-38
2023/07/27 06:00:17;;;;;;;2.40;1.50;;;16.10;99.90;;;15.79;100.00;96929.25;5029655;28;20036;-39
2023/07/27 06:02:43;;;;;;;4.10;1.95;;;16.10;99.90;;;15.86;100.00;96932.31;5026487;28;20629;-38
2023/07/27 06:05:09;;;;;;;2.35;1.70;;;16.20;99.90;;;15.93;100.00;96925.66;5022703;28;20048;-38
2023/07/27 06:07:35;;;;;;;3.13;1.88;;;16.30;99.90;;;16.06;100.00;96931.03;5011338;28;21977;-38
2023/07/27 06:10:00;;;;;;;2.47;1.60;;;16.40;99.90;;;16.06;100.00;96919.50;5031192;28;20053;-38
2023/07/27 06:12:27;;;;;;;3.00;1.80;;;16.50;99.90;;;16.22;100.00;96937.03;5024918;28;20067;-37
2023/07/27 06:14:53;;;;;;;3.00;1.77;;;16.50;99.90;;;16.27;100.00;96933.19;5029501;28;20400;-38
2023/07/27 06:17:18;;;;;;;3.35;1.83;;;16.60;99.90;;;16.37;100.00;96936.94;5023102;28;20044;-39
2023/07/27 06:19:44;;;;;;;4.43;1.83;;;16.70;99.90;;;16.36;100.00;96933.41;5024443;28;20528;-38
2023/07/27 06:22:10;;;;;;;3.30;1.80;;;16.70;99.90;;;16.47;100.00;96939.81;5028293;28;20028;-40
2023/07/27 06:24:36;;;;;;;2.30;1.70;;;16.80;99.90;;;16.50;100.00;96919.19;5025267;28;20436;-38
2023/07/27 06:27:02;;;;;;;3.10;1.80;;;17.00;99.90;;;16.79;99.88;96934.94;5028230;28;20040;-37
2023/07/27 06:29:28;;;;;;;3.60;1.52;;;17.10;99.90;;;16.98;98.43;96929.22;5018114;28;20086;-38
2023/07/27 06:31:54;;;;;;;6.85;1.60;;;17.30;99.90;;;17.22;96.23;96934.63;5028169;28;20075;-38
2023/07/27 06:34:19;;;;;;;5.10;1.75;;;17.50;99.90;;;17.38;94.81;96934.38;5018253;28;20163;-37
2023/07/27 06:36:45;;;;;;;4.75;2.10;;;17.70;99.90;;;17.49;95.05;96941.59;5024230;28;20067;-37
2023/07/27 06:39:11;;;;;;;2.35;1.73;;;17.80;99.90;;;17.50;95.55;96919.34;5018585;28;20039;-38
2023/07/27 06:41:36;;;;;;;3.78;2.08;;;17.90;99.90;;;17.56;94.61;96932.19;5026662;28;20055;-37
2023/07/27 06:44:02;;;;;;;2.38;1.90;;;17.90;99.90;;;17.51;95.15;96921.00;5010174;28;20029;-38
2023/07/27 06:46:28;;;;;;;2.55;1.65;;;17.90;99.90;;;17.61;97.36;96922.06;5026588;28;20025;-37
2023/07/27 06:48:53;;;;;;;3.30;1.83;;;17.90;99.90;;;17.63;98.05;96921.94;5031599;28;20064;-38
2023/07/27 06:51:19;;;;;;;3.33;1.88;;;17.90;99.90;;;17.59;97.18;96924.00;5023239;28;20163;-39
2023/07/27 06:53:45;;;;;;;2.92;1.70;;;17.90;99.90;;;17.65;97.66;96922.69;5019542;28;20381;-37
2023/07/27 06:56:11;;;;;;;2.35;1.60;;;18.00;99.90;;;17.69;95.87;96916.16;5022251;28;20032;-37
2023/07/27 06:58:37;;;;;;;4.20;1.90;;;18.00;99.90;;;17.73;93.62;96926.50;5021205;28;20422;-37
2023/07/27 07:01:03;;;;;;;3.10;1.85;;;18.10;99.90;;;17.82;93.29;96926.75;5022721;28;20027;-37
2023/07/27 07:03:29;;;;;;;2.72;1.85;;;18.10;99.90;;;17.92;96.90;96927.81;5020188;28;20339;-37
2023/07/27 07:05:54;;;;;;;6.28;1.70;;;18.20;99.90;;;17.94;94.92;96931.22;5034801;28;20029;-37
2023/07/27 07:08:20;;;;;;;3.38;1.80;;;18.20;99.90;;;17.91;94.22;96918.13;5026318;28;20036;-37
2023/07/27 07:10:46;;;;;;;6.35;2.00;;;18.20;99.90;;;17.83;92.63;96925.81;5028996;28;20068;-37
2023/07/27 07:13:11;;;;;;;2.50;1.70;;;18.20;99.90;;;17.79;95.01;96916.34;5023897;28;20552;-37
2023/07/27 07:15:37;;;;;;;3.35;1.73;;;18.10;99.90;;;17.73;96.40;96910.50;5042987;28;20029;-37
2023/07/27 07:18:03;;;;;;;4.32;2.10;;;18.10;99.90;;;17.66;97.16;96916.41;5029570;28;20036;-38
2023/07/27 07:20:29;;;;;;;3.83;1.73;;;18.00;99.90;;;17.66;97.93;96913.72;5021149;28;20427;-37
2023/07/27 07:22:54;;;;;;;1.88;1.50;;;18.00;99.90;;;17.67;98.80;96916.25;5020448;28;20056;-38
2023/07/27 07:25:20;;;;;;;3.47;2.10;;;18.00;99.90;;;17.65;99.00;96906.69;5029067;28;20209;-37
2023/07/27 07:27:46;;;;;;;4.10;1.98;;;18.00;99.90;;;17.70;100.00;96904.53;5034568;28;20036;-37
2023/07/27 07:30:12;;;;;;;2.28;1.50;;;18.00;99.90;;;17.80;100.00;96915.34;5022484;28;20033;-37
2023/07/27 07:32:38;;;;;;;3.50;1.83;;;18.10;99.90;;;17.88;100.00;96905.88;5028954;28;20060;-37
2023/07/27 07:35:04;;;;;;;2.65;1.75;;;18.20;99.90;;;17.99;100.00;96897.06;5023765;28;20036;-38
2023/07/27 07:37:29;;;;;;;4.68;2.30;;;18.30;99.90;;;17.98;100.00;96898.03;5032084;28;20037;-37
2023/07/27 07:39:55;;;;;;;3.20;1.88;;;18.30;99.90;;;18.01;100.00;96895.13;5026655;28;20052;-38
2023/07/27 07:42:21;;;;;;;4.28;1.83;;;18.30;99.90;;;17.97;96.70;96890.16;5026516;28;20437;-38
2023/07/27 07:44:47;;;;;;;2.20;1.70;;;18.30;99.90;;;17.94;96.23;96888.53;5028150;28;20025;-39
2023/07/27 07:47:13;;;;;;;4.75;2.00;;;18.30;99.90;;;17.89;95.03;96882.69;5024969;28;20416;-39
2023/07/27 07:49:38;;;;;;;2.38;1.80;;;18.20;99.90;;;17.87;98.70;96884.63;5026607;28;20033;-40
2023/07/27 07:52:05;;;;;;;3.08;1.75;;;18.20;99.90;;;17.85;96.39;96886.53;5032133;22;20520;-40
2023/07/27 07:54:31;;;;;;;2.80;1.98;;;18.20;99.90;;;17.80;97.04;96888.69;5003849;28;20021;-39
2023/07/27 07:56:57;;;;;;;3.88;1.90;;;18.10;99.90;;;17.70;95.78;96884.03;5008625;28;20103;-38
2023/07/27 07:59:23;;;;;;;4.15;1.90;;;18.00;99.90;;;17.60;97.56;96887.50;5005391;28;20036;-38
2023/07/27 08:01:49;;;;;;;4.10;1.98;;;17.90;99.90;;;17.54;99.81;96883.47;4990878;28;20540;-38
2023/07/27 08:04:15;;;;;;;3.28;1.90;;;17.90;99.90;;;17.30;99.76;96857.66;4994382;28;20033;-38
2023/07/27 08:06:41;;;;;;;3.35;1.70;;;17.80;99.90;;;17.30;95.72;96870.97;5007617;28;20119;-38
2023/07/27 08:09:07;;;;;;;3.17;1.88;;;17.70;99.90;;;17.40;96.02;96872.97;5001644;28;20026;-38
2023/07/27 08:11:33;;;;;;;4.65;2.28;;;17.70;99.90;;;17.47;96.99;96874.22;4998113;28;20041;-38
2023/07/27 08:14:01;;;;;;;1.98;1.40;;;17.80;99.90;;;17.47;97.47;96851.06;4991344;28;20048;-38
2023/07/27 08:16:29;;;;;;;2.40;1.65;;;17.90;99.90;;;17.67;96.69;96870.94;5003071;28;20049;-38
2023/07/27 08:18:55;;;;;;;3.40;1.60;;;18.00;99.90;;;17.88;94.97;96867.69;4998910;28;21267;-38
2023/07/27 08:21:21;;;;;;;4.50;1.73;;;18.20;99.90;;;17.95;92.49;96865.41;5005355;28;20018;-38
2023/07/27 08:23:47;;;;;;;4.65;1.70;;;18.30;99.90;;;18.03;94.35;96865.66;5005410;28;20556;-38
2023/07/27 08:26:13;;;;;;;4.20;1.60;;;18.40;99.90;;;18.08;91.04;96863.50;5005894;28;20516;-38
2023/07/27 08:28:38;;;;;;;4.32;1.95;;;18.40;99.90;;;18.15;89.95;96853.22;5010549;28;20041;-38
2023/07/27 08:31:04;;;;;;;4.80;1.75;;;18.40;99.90;;;18.19;88.58;96850.19;5008559;28;20512;-38
2023/07/27 08:33:31;;;;;;;5.60;1.83;;;18.50;99.90;;;18.19;86.94;96842.19;5012991;28;20061;-38
2023/07/27 08:35:57;;;;;;;3.63;2.17;;;18.50;99.90;;;18.18;86.91;96850.31;4997129;28;20136;-38
2023/07/27 08:38:24;;;;;;;5.55;1.80;;;18.50;99.90;;;18.14;89.69;96844.34;5002846;28;20074;-38
2023/07/27 08:40:59;;;;;;;2.47;1.70;;;18.50;99.90;;;18.08;88.74;96837.66;5001395;28;20386;-38
2023/07/27 08:43:26;;;;;;;3.58;1.73;;;18.40;99.90;;;18.01;89.06;96828.44;5007001;28;20056;-38
2023/07/27 08:45:52;;;;;;;3.55;1.65;;;18.40;99.90;;;18.07;88.89;96840.44;5007652;28;20057;-38
2023/07/27 08:48:19;;;;;;;5.82;1.73;;;18.40;99.90;;;18.09;91.04;96834.03;5002834;28;20172;-38
2023/07/27 08:50:47;;;;;;;4.68;1.92;;;18.40;99.90;;;18.10;91.40;96841.06;5011885;28;20056;-38
2023/07/27 08:53:14;;;;;;;2.88;1.67;;;18.40;99.90;;;18.15;91.31;96835.38;5004028;28;20048;-39
2023/07/27 08:55:40;;;;;;;3.03;1.63;;;18.50;99.90;;;18.18;92.55;96826.28;5007367;28;20029;-38
2023/07/27 08:58:07;;;;;;;3.17;1.60;;;18.50;99.90;;;18.25;91.16;96822.16;5006156;28;20501;-39
2023/07/27 09:00:33;;;;;;;2.30;1.50;;;18.60;99.90;;;18.27;92.29;96810.44;5010859;28;20029;-38
2023/07/27 09:02:59;;;;;;;6.40;1.75;;;18.60;99.90;;;18.34;90.27;96824.16;5007662;28;20366;-38
2023/07/27 09:05:55;;;;;;;2.65;1.63;;;18.70;99.90;;;18.35;86.11;96817.00;5005372;28;20604;-38
2023/07/27 09:08:21;;;;;;;3.15;1.75;;;18.60;99.90;;;18.36;85.09;96810.66;5012830;28;20042;-38
2023/07/27 09:10:46;;;;;;;3.00;1.70;;;18.60;99.90;;;18.28;89.26;96809.44;5013866;28;20595;-38
2023/07/27 09:13:12;;;;;;;3.58;1.83;;;18.60;99.90;;;18.13;87.24;96803.47;5010620;28;20018;-38
2023/07/27 09:15:44;;;;;;;3.22;1.75;;;18.50;99.90;;;18.11;87.77;96813.41;5006302;28;20045;-38
2023/07/27 09:18:14;;;;;;;4.65;2.22;;;18.40;99.90;;;18.01;88.82;96815.09;5005347;28;20034;-38
2023/07/27 09:20:41;;;;;;;2.17;1.80;;;18.30;99.90;;;17.95;89.61;96817.41;5013319;28;20029;-38
2023/07/27 09:23:07;;;;;;;2.70;1.80;;;18.20;99.90;;;17.89;91.54;96818.69;5002862;28;20044;-39
2023/07/27 09:25:33;;;;;;;3.55;1.83;;;18.20;99.90;;;17.84;92.33;96828.84;5002600;28;20088;-40
2023/07/27 09:27:59;;;;;;;4.22;1.67;;;18.10;99.90;;;17.84;94.43;96827.00;5009054;28;22686;-38
2023/07/27 09:30:25;;;;;;;5.20;1.38;;;18.10;99.90;;;17.81;100.00;96826.41;4993710;28;20055;-38
2023/07/27 09:32:52;;;;;;;3.63;2.08;;;18.10;99.90;;;17.70;100.00;96830.72;5004554;28;20029;-38
2023/07/27 09:35:20;;;;;;;3.90;1.90;;;18.00;99.90;;;17.61;100.00;96817.22;4998802;28;20042;-38
2023/07/27 09:37:50;;;;;;;3.65;2.20;;;17.90;99.90;;;17.53;100.00;96828.44;5004926;28;20341;-39
2023/07/27 09:40:20;;;;;;;3.25;1.90;;;17.90;99.90;;;17.44;100.00;96831.78;4999867;28;20068;-38
2023/07/27 09:42:46;;;;;;;6.80;1.95;;;17.70;99.90;;;17.37;100.00;96823.38;5008164;28;20052;-38
2023/07/27 09:45:13;;;;;;;2.88;2.13;;;17.70;99.90;;;17.29;100.00;96823.13;5007235;28;20036;-38
2023/07/27 09:47:39;;;;;;;3.58;1.90;;;17.60;99.90;;;17.27;100.00;96830.38;5009804;28;20414;-38
2023/07/27 09:50:07;;;;;;;6.13;1.98;;;17.60;99.90;;;17.22;100.00;96825.38;5011256;28;20033;-38
2023/07/27 09:52:36;;;;;;;7.10;2.40;;;17.50;99.90;;;17.20;100.00;96821.13;5003674;28;20062;-38
2023/07/27 09:55:02;;;;;;;2.95;1.80;;;17.50;99.90;;;17.20;100.00;96813.97;5009116;28;20267;-38
2023/07/27 09:57:29;;;;;;;3.85;1.85;;;17.50;99.90;;;17.24;100.00;96810.13;5008515;28;20085;-39
2023/07/27 09:59:55;;;;;;;2.47;1.60;;;17.60;99.90;;;17.27;100.00;96807.25;5010030;28;20025;-38
2023/07/27 10:02:22;;;;;;;2.75;1.80;;;17.60;99.90;;;17.36;100.00;96805.72;5008278;28;20440;-39
2023/07/27 10:04:52;;;;;;;3.58;1.50;;;17.60;99.90;;;17.40;100.00;96804.50;5002662;28;20033;-38
2023/07/27 10:07:22;;;;;;;2.53;1.75;;;17.70;99.90;;;17.42;100.00;96804.41;4990906;28;20478;-38
2023/07/27 10:09:48;;;;;;;3.40;1.98;;;17.70;99.90;;;17.39;100.00;96794.84;4998718;28;20041;-38
2023/07/27 10:12:27;;;;;;;4.47;1.65;;;17.70;99.90;;;17.38;100.00;96803.78;4999968;28;20116;-38
2023/07/27 10:15:24;;;;;;;2.97;1.70;;;17.70;99.90;;;17.39;100.00;96799.28;4988775;28;20037;-38